createdAt,value
2023-03-26T00:01:16.115Z,8.93
2023-03-26T00:03:44.771Z,8.88
2023-03-26T00:06:14.436Z,8.92
2023-03-26T00:08:44.522Z,8.91
2023-03-26T00:11:14.815Z,8.91
2023-03-26T00:13:44.565Z,8.90
2023-03-26T00:16:16.762Z,8.93
2023-03-26T00:18:44.717Z,8.89
2023-03-26T00:21:14.731Z,8.96
2023-03-26T00:23:44.863Z,8.96
2023-03-26T00:26:21.594Z,8.80
2023-03-26T00:28:49.980Z,8.94
2023-03-26T00:31:19.195Z,8.93
2023-03-26T00:33:59.120Z,8.93
2023-03-26T00:36:27.246Z,8.98
2023-03-26T00:38:55.202Z,8.88
2023-03-26T00:41:26.387Z,8.97
2023-03-26T00:43:57.203Z,8.96
2023-03-26T00:46:29.519Z,8.91
2023-03-26T00:48:59.632Z,8.95
2023-03-26T00:51:28.642Z,8.92
2023-03-26T00:53:57.008Z,8.96
2023-03-26T00:56:26.203Z,8.96
2023-03-26T00:58:53.820Z,8.94
2023-03-26T01:01:24.538Z,8.97
2023-03-26T01:04:06.861Z,8.93
2023-03-26T01:06:39.003Z,8.91
2023-03-26T01:09:13.931Z,8.92
2023-03-26T01:11:42.064Z,8.93
2023-03-26T01:14:13.002Z,8.95
2023-03-26T01:16:44.010Z,8.93
2023-03-26T01:19:19.037Z,8.88
2023-03-26T01:21:46.848Z,8.94
2023-03-26T01:24:16.210Z,8.77
2023-03-26T01:27:04.722Z,8.87
2023-03-26T01:29:38.452Z,8.86
2023-03-26T01:32:18.433Z,8.84
2023-03-26T01:35:02.822Z,8.93
2023-03-26T01:37:41.103Z,8.88
2023-03-26T01:40:17.947Z,8.87
2023-03-26T01:42:53.670Z,8.85
2023-03-26T01:45:25.419Z,8.81
2023-03-26T01:47:53.354Z,8.85
2023-03-26T01:50:21.250Z,8.90
2023-03-26T01:52:49.080Z,8.90
2023-03-26T01:55:19.540Z,8.88
2023-03-26T01:57:59.844Z,8.93
2023-03-26T02:00:32.042Z,8.92
2023-03-26T02:03:12.568Z,8.94
2023-03-26T02:05:47.096Z,8.90
2023-03-26T02:08:20.883Z,8.92
2023-03-26T02:10:52.882Z,8.90
2023-03-26T02:13:20.871Z,8.83
2023-03-26T02:15:56.522Z,8.88
2023-03-26T02:18:25.096Z,8.87
2023-03-26T02:20:53.100Z,8.87
2023-03-26T02:23:21.110Z,8.88
2023-03-26T02:25:51.955Z,8.90
2023-03-26T02:28:21.250Z,8.88
2023-03-26T02:30:48.870Z,8.87
2023-03-26T02:33:16.628Z,8.88
2023-03-26T02:35:44.807Z,8.85
2023-03-26T02:38:12.507Z,8.85
2023-03-26T02:40:40.678Z,8.83
2023-03-26T02:43:11.456Z,8.85
2023-03-26T02:45:39.998Z,8.83
2023-03-26T02:48:07.727Z,8.78
2023-03-26T02:50:35.822Z,8.87
2023-03-26T02:53:03.450Z,8.81
2023-03-26T02:55:32.495Z,8.81
2023-03-26T02:58:00.377Z,8.86
2023-03-26T03:00:30.173Z,8.91
2023-03-26T03:02:58.368Z,8.87
2023-03-26T03:05:26.353Z,8.88
2023-03-26T03:07:56.318Z,8.89
2023-03-26T03:10:28.168Z,8.88
2023-03-26T03:12:56.061Z,8.82
2023-03-26T03:15:26.001Z,8.81
2023-03-26T03:17:55.319Z,8.90
2023-03-26T03:20:23.093Z,8.83
2023-03-26T03:22:51.442Z,8.85
2023-03-26T03:25:19.670Z,8.89
2023-03-26T03:27:47.460Z,8.86
2023-03-26T03:30:15.256Z,8.84
2023-03-26T03:32:43.130Z,8.84
2023-03-26T03:35:14.136Z,8.84
2023-03-26T03:37:43.028Z,8.88
2023-03-26T03:40:11.359Z,8.91
2023-03-26T03:42:39.634Z,8.90
2023-03-26T03:45:08.936Z,8.78
2023-03-26T03:47:51.496Z,8.89
2023-03-26T03:50:21.107Z,8.86
2023-03-26T03:52:48.793Z,8.91
2023-03-26T03:55:16.431Z,8.90
2023-03-26T03:57:44.782Z,8.89
2023-03-26T04:00:14.186Z,8.88
2023-03-26T04:02:42.285Z,8.84
2023-03-26T04:05:15.651Z,8.87
2023-03-26T04:07:44.707Z,8.88
2023-03-26T04:10:15.671Z,8.90
2023-03-26T04:12:44.982Z,8.89
2023-03-26T04:15:12.589Z,8.91
2023-03-26T04:17:40.453Z,8.82
2023-03-26T04:20:10.755Z,8.87
2023-03-26T04:22:38.710Z,8.91
2023-03-26T04:25:12.749Z,8.96
2023-03-26T04:27:40.737Z,8.97
2023-03-26T04:30:12.112Z,8.95
2023-03-26T04:32:39.997Z,8.97
2023-03-26T04:35:11.517Z,9.00
2023-03-26T04:37:44.323Z,8.97
2023-03-26T04:40:15.239Z,8.88
2023-03-26T04:42:43.021Z,8.99
2023-03-26T04:45:11.289Z,8.98
2023-03-26T04:47:39.152Z,9.04
2023-03-26T04:50:09.693Z,9.07
2023-03-26T04:52:38.309Z,9.08
2023-03-26T04:55:12.946Z,9.08
2023-03-26T04:57:45.537Z,9.11
2023-03-26T05:00:15.681Z,9.08
2023-03-26T05:02:43.772Z,9.14
2023-03-26T05:05:11.891Z,9.15
2023-03-26T05:07:39.570Z,9.16
2023-03-26T05:10:13.684Z,9.19
2023-03-26T05:12:43.177Z,9.19
2023-03-26T05:15:12.260Z,9.13
2023-03-26T05:17:41.597Z,9.22
2023-03-26T05:20:17.781Z,9.23
2023-03-26T05:22:50.986Z,9.18
2023-03-26T05:25:20.027Z,9.24
2023-03-26T05:27:49.155Z,9.22
2023-03-26T05:30:19.262Z,9.19
2023-03-26T05:32:48.434Z,9.27
2023-03-26T05:35:17.103Z,9.22
2023-03-26T05:37:49.216Z,9.25
2023-03-26T05:40:17.511Z,9.31
2023-03-26T05:42:45.193Z,9.34
2023-03-26T05:45:15.271Z,9.38
2023-03-26T05:47:43.471Z,9.37
2023-03-26T05:50:11.731Z,9.41
2023-03-26T05:52:41.565Z,9.46
2023-03-26T05:55:09.974Z,9.42
2023-03-26T05:57:38.013Z,9.47
2023-03-26T06:00:08.163Z,9.50
2023-03-26T06:02:37.732Z,9.42
2023-03-26T06:05:05.967Z,9.47
2023-03-26T06:07:35.597Z,9.58
2023-03-26T06:10:03.429Z,9.62
2023-03-26T06:12:31.195Z,9.63
2023-03-26T06:15:00.574Z,9.63
2023-03-26T06:17:28.424Z,9.67
2023-03-26T06:19:57.482Z,9.66
2023-03-26T06:22:26.110Z,9.68
2023-03-26T06:24:53.857Z,9.69
2023-03-26T06:27:24.558Z,9.73
2023-03-26T06:29:52.505Z,9.72
2023-03-26T06:32:20.730Z,9.73
2023-03-26T06:34:48.916Z,9.70
2023-03-26T06:37:18.177Z,9.74
2023-03-26T06:39:45.879Z,9.70
2023-03-26T06:42:13.557Z,9.80
2023-03-26T06:44:41.263Z,9.83
2023-03-26T06:47:10.070Z,9.96
2023-03-26T06:49:38.356Z,10.01
2023-03-26T06:52:12.213Z,10.09
2023-03-26T06:54:41.784Z,10.09
2023-03-26T06:57:09.426Z,10.18
2023-03-26T06:59:37.361Z,10.30
2023-03-26T07:02:05.290Z,10.31
2023-03-26T07:04:32.882Z,10.40
2023-03-26T07:07:01.584Z,10.52
2023-03-26T07:09:29.608Z,10.75
2023-03-26T07:11:58.723Z,10.92
2023-03-26T07:14:26.421Z,11.03
2023-03-26T07:16:54.330Z,11.11
2023-03-26T07:19:23.026Z,11.17
2023-03-26T07:21:51.904Z,11.18
2023-03-26T07:24:20.310Z,11.24
2023-03-26T07:26:56.727Z,11.21
2023-03-26T07:29:35.338Z,11.23
2023-03-26T07:32:18.915Z,11.21
2023-03-26T07:34:53.244Z,11.35
2023-03-26T07:37:33.148Z,11.39
2023-03-26T07:40:04.885Z,11.48
2023-03-26T07:42:50.770Z,11.45
2023-03-26T07:45:28.400Z,11.56
2023-03-26T07:47:56.626Z,11.46
2023-03-26T07:50:25.387Z,11.56
2023-03-26T07:52:53.573Z,11.58
2023-03-26T07:55:22.059Z,11.53
2023-03-26T07:57:58.835Z,11.55
2023-03-26T08:00:34.197Z,11.62
2023-03-26T08:03:26.666Z,11.53
2023-03-26T08:06:05.613Z,11.50
2023-03-26T08:08:45.250Z,11.61
2023-03-26T08:11:27.908Z,11.61
2023-03-26T08:14:08.620Z,11.60
2023-03-26T08:16:46.574Z,11.55
2023-03-26T08:19:32.596Z,11.50
2023-03-26T08:22:08.978Z,11.50
2023-03-26T08:24:43.340Z,11.54
2023-03-26T08:27:20.902Z,11.54
2023-03-26T08:29:59.803Z,11.46
2023-03-26T08:32:29.696Z,11.44
2023-03-26T08:34:57.600Z,11.59
2023-03-26T08:37:25.208Z,11.53
2023-03-26T08:39:53.282Z,11.46
2023-03-26T08:43:04.256Z,11.44
2023-03-26T08:46:11.768Z,11.49
2023-03-26T08:49:05.695Z,11.42
2023-03-26T08:52:26.968Z,11.59
2023-03-26T08:55:23.017Z,11.62
2023-03-26T08:58:36.881Z,11.66
2023-03-26T09:01:28.993Z,11.70
2023-03-26T09:04:29.060Z,11.99
2023-03-26T09:07:24.681Z,12.18
2023-03-26T09:10:31.185Z,12.32
2023-03-26T09:13:35.477Z,12.31
2023-03-26T09:16:47.779Z,12.31
2023-03-26T09:19:58.036Z,12.53
2023-03-26T09:22:51.199Z,12.66
2023-03-26T09:25:55.110Z,12.62
2023-03-26T09:28:56.057Z,12.67
2023-03-26T09:31:44.889Z,12.63
2023-03-26T09:34:27.879Z,12.79
2023-03-26T09:36:56.947Z,12.85
2023-03-26T09:39:38.186Z,12.99
2023-03-26T09:42:13.929Z,13.25
2023-03-26T09:45:06.591Z,13.77
2023-03-26T09:48:09.380Z,14.15
2023-03-26T09:51:07.265Z,14.97
2023-03-26T09:53:51.601Z,15.06
2023-03-26T09:56:35.694Z,15.42
2023-03-26T09:59:23.101Z,15.36
2023-03-26T10:01:58.716Z,15.22
2023-03-26T10:05:01.838Z,14.88
2023-03-26T10:07:49.369Z,14.68
2023-03-26T10:10:28.884Z,14.54
2023-03-26T10:13:14.108Z,14.47
2023-03-26T10:15:58.467Z,14.33
2023-03-26T10:18:40.752Z,14.45
2023-03-26T10:21:18.824Z,14.56
2023-03-26T10:24:00.832Z,15.08
2023-03-26T10:27:09.385Z,15.72
2023-03-26T10:32:40.603Z,16.45
2023-03-26T10:35:25.704Z,16.63
2023-03-26T10:38:05.732Z,16.38
2023-03-26T10:40:40.325Z,15.77
2023-03-26T10:43:46.421Z,15.75
2023-03-26T10:46:47.273Z,15.63
2023-03-26T10:49:38.232Z,15.63
2023-03-26T10:52:09.250Z,15.54
2023-03-26T10:54:50.595Z,15.55
2023-03-26T10:57:33.830Z,15.82
2023-03-26T11:00:14.336Z,15.71
2023-03-26T11:02:46.815Z,16.07
2023-03-26T11:05:34.647Z,16.19
2023-03-26T11:08:06.756Z,16.10
2023-03-26T11:10:49.065Z,16.54
2023-03-26T11:13:26.156Z,16.71
2023-03-26T11:16:00.757Z,16.47
2023-03-26T11:18:41.557Z,16.31
2023-03-26T11:21:20.611Z,16.72
2023-03-26T11:24:05.009Z,16.76
2023-03-26T11:26:47.563Z,16.46
2023-03-26T11:29:31.296Z,16.32
2023-03-26T11:32:06.683Z,16.13
2023-03-26T11:34:39.110Z,15.66
2023-03-26T11:37:17.141Z,15.44
2023-03-26T11:39:50.931Z,15.64
2023-03-26T11:42:22.961Z,15.80
2023-03-26T11:44:55.129Z,15.89
2023-03-26T11:47:29.368Z,15.99
2023-03-26T11:50:00.267Z,16.09
2023-03-26T11:52:29.426Z,16.38
2023-03-26T11:54:57.426Z,16.64
2023-03-26T11:57:30.075Z,16.74
2023-03-26T12:00:01.972Z,16.27
2023-03-26T12:02:31.453Z,16.12
2023-03-26T12:05:14.886Z,15.84
2023-03-26T12:07:53.069Z,15.66
2023-03-26T12:10:26.652Z,15.27
2023-03-26T12:13:00.246Z,14.86
2023-03-26T12:15:31.472Z,14.27
2023-03-26T12:18:24.391Z,14.03
2023-03-26T12:21:04.747Z,13.64
2023-03-26T12:24:01.280Z,13.24
2023-03-26T12:26:36.136Z,12.73
2023-03-26T12:29:10.410Z,12.24
2023-03-26T12:31:57.174Z,12.12
2023-03-26T12:34:30.741Z,11.95
2023-03-26T12:36:59.037Z,11.89
2023-03-26T12:40:07.088Z,11.88
2023-03-26T12:44:51.111Z,11.95
2023-03-26T12:45:22.166Z,11.95
2023-03-26T12:47:57.562Z,11.96
2023-03-26T12:50:41.923Z,12.13
2023-03-26T12:53:37.780Z,12.16
2023-03-26T12:56:18.313Z,12.16
2023-03-26T12:59:06.449Z,12.18
2023-03-26T13:01:47.744Z,12.22
2023-03-26T13:04:35.059Z,12.34
2023-03-26T13:07:14.365Z,12.36
2023-03-26T13:10:05.448Z,12.44
2023-03-26T13:12:45.572Z,12.39
2023-03-26T13:15:23.419Z,12.40
2023-03-26T13:18:07.442Z,12.34
2023-03-26T13:20:49.811Z,12.21
2023-03-26T13:23:31.007Z,12.12
2023-03-26T13:26:15.733Z,12.03
2023-03-26T13:28:54.442Z,11.97
2023-03-26T13:31:27.711Z,12.03
2023-03-26T13:34:06.806Z,12.02
2023-03-26T13:36:45.554Z,12.04
2023-03-26T13:39:28.789Z,12.04
2023-03-26T13:42:11.295Z,12.02
2023-03-26T13:44:50.978Z,12.02
2023-03-26T13:47:24.170Z,11.89
2023-03-26T13:49:55.968Z,11.86
2023-03-26T13:52:26.973Z,11.78
2023-03-26T13:55:04.623Z,11.73
2023-03-26T13:57:38.781Z,11.72
2023-03-26T14:00:15.296Z,11.70
2023-03-26T14:02:46.184Z,11.73
2023-03-26T14:05:24.195Z,11.48
2023-03-26T14:07:56.430Z,11.51
2023-03-26T14:10:27.494Z,11.46
2023-03-26T14:13:01.627Z,11.43
2023-03-26T14:15:40.804Z,11.46
2023-03-26T14:18:24.669Z,11.47
2023-03-26T14:21:20.810Z,11.45
2023-03-26T14:24:09.944Z,11.46
2023-03-26T14:27:07.088Z,11.46
2023-03-26T14:30:13.476Z,11.43
2023-03-26T14:32:52.791Z,11.40
2023-03-26T14:35:33.340Z,11.37
2023-03-26T14:38:24.376Z,11.42
2023-03-26T14:40:57.900Z,11.50
2023-03-26T14:43:49.972Z,11.52
2023-03-26T14:46:34.210Z,11.55
2023-03-26T14:49:40.423Z,11.56
2023-03-26T14:52:17.150Z,11.56
2023-03-26T14:54:53.671Z,11.56
2023-03-26T14:57:52.823Z,11.53
2023-03-26T15:00:56.334Z,11.56
2023-03-26T15:04:27.865Z,11.58
2023-03-26T15:10:34.819Z,11.59
2023-03-26T15:16:17.840Z,11.48
2023-03-26T15:19:31.639Z,11.45
2023-03-26T15:22:39.737Z,11.48
2023-03-26T15:25:53.666Z,11.38
2023-03-26T15:29:00.112Z,11.38
2023-03-26T15:31:50.150Z,11.39
2023-03-26T15:34:50.172Z,11.37
2023-03-26T15:38:04.393Z,11.36
2023-03-26T15:40:47.392Z,11.23
2023-03-26T15:43:19.623Z,11.31
2023-03-26T15:45:51.371Z,11.23
2023-03-26T15:48:32.713Z,11.25
2023-03-26T15:51:28.524Z,11.20
2023-03-26T15:54:04.392Z,11.12
2023-03-26T15:56:57.281Z,11.10
2023-03-26T15:59:38.899Z,11.08
2023-03-26T16:02:19.412Z,11.01
2023-03-26T16:04:53.036Z,10.99
2023-03-26T16:07:48.213Z,11.01
2023-03-26T16:10:35.842Z,11.03
2023-03-26T16:13:30.334Z,11.01
2023-03-26T16:16:19.950Z,10.95
2023-03-26T16:18:54.710Z,10.95
2023-03-26T16:21:54.558Z,10.98
2023-03-26T16:24:30.353Z,10.97
2023-03-26T16:27:30.167Z,10.85
2023-03-26T16:30:29.583Z,10.72
2023-03-26T16:33:10.885Z,10.64
2023-03-26T16:36:04.959Z,10.65
2023-03-26T16:39:11.471Z,10.66
2023-03-26T16:42:05.945Z,10.54
2023-03-26T16:44:45.110Z,10.64
2023-03-26T16:47:29.853Z,10.64
2023-03-26T16:50:11.985Z,10.63
2023-03-26T16:52:49.534Z,10.48
2023-03-26T16:55:23.086Z,10.42
2023-03-26T16:57:56.769Z,10.40
2023-03-26T17:00:42.765Z,10.33
2023-03-26T17:03:43.605Z,10.25
2023-03-26T17:06:48.236Z,10.31
2023-03-26T17:09:28.614Z,10.24
2023-03-26T17:12:07.791Z,10.24
2023-03-26T17:14:53.139Z,10.25
2023-03-26T17:17:38.055Z,10.19
2023-03-26T17:20:18.459Z,10.17
2023-03-26T17:22:54.664Z,10.08
2023-03-26T17:25:28.805Z,10.13
2023-03-26T17:28:16.139Z,10.10
2023-03-26T17:31:00.646Z,10.06
2023-03-26T17:33:33.572Z,10.09
2023-03-26T17:36:30.044Z,9.99
2023-03-26T17:39:41.644Z,9.90
2023-03-26T17:42:25.892Z,9.95
2023-03-26T17:44:55.248Z,9.89
2023-03-26T17:47:42.497Z,9.77
2023-03-26T17:50:14.567Z,9.69
2023-03-26T17:52:53.338Z,9.66
2023-03-26T17:55:26.170Z,9.69
2023-03-26T17:57:58.118Z,9.65
2023-03-26T18:00:29.397Z,9.65
2023-03-26T18:03:02.925Z,9.53
2023-03-26T18:05:31.905Z,9.54
2023-03-26T18:08:40.431Z,9.45
2023-03-26T18:11:56.184Z,9.39
2023-03-26T18:14:54.808Z,9.26
2023-03-26T18:17:24.465Z,9.27
2023-03-26T18:20:04.962Z,9.05
2023-03-26T18:22:33.589Z,8.90
2023-03-26T18:25:03.379Z,8.94
2023-03-26T18:27:39.533Z,8.90
2023-03-26T18:30:19.679Z,8.56
2023-03-26T18:32:52.827Z,8.52
2023-03-26T18:35:27.562Z,8.61
2023-03-26T18:38:00.841Z,8.53
2023-03-26T18:40:32.751Z,8.40
2023-03-26T18:43:01.000Z,8.44
2023-03-26T18:45:32.948Z,8.38
2023-03-26T18:48:05.090Z,8.34
2023-03-26T18:50:35.269Z,8.40
2023-03-26T18:53:05.595Z,8.52
2023-03-26T18:55:35.864Z,8.58
2023-03-26T18:58:20.907Z,8.43
2023-03-26T19:00:56.135Z,8.41
2023-03-26T19:03:24.989Z,8.43
2023-03-26T19:05:56.230Z,8.50
2023-03-26T19:08:25.755Z,8.53
2023-03-26T19:10:57.407Z,8.58
2023-03-26T19:13:28.951Z,8.54
2023-03-26T19:15:59.266Z,8.61
2023-03-26T19:18:29.515Z,8.66
2023-03-26T19:20:59.598Z,8.64
2023-03-26T19:23:32.194Z,8.64
2023-03-26T19:26:02.226Z,8.56
2023-03-26T19:28:33.701Z,8.57
2023-03-26T19:31:10.173Z,8.47
2023-03-26T19:33:42.560Z,8.44
2023-03-26T19:36:19.341Z,8.39
2023-03-26T19:38:51.608Z,8.36
2023-03-26T19:41:22.999Z,8.34
2023-03-26T19:43:51.784Z,8.31
2023-03-26T19:46:22.227Z,8.28
2023-03-26T19:48:51.923Z,8.27
2023-03-26T19:51:22.118Z,8.26
2023-03-26T19:53:53.691Z,8.21
2023-03-26T19:56:22.193Z,8.13
2023-03-26T19:58:50.509Z,8.08
2023-03-26T20:01:20.752Z,7.98
2023-03-26T20:03:56.185Z,7.94
2023-03-26T20:06:33.986Z,7.89
2023-03-26T20:09:06.112Z,7.90
2023-03-26T20:11:36.155Z,7.88
2023-03-26T20:14:13.743Z,7.88
2023-03-26T20:16:45.443Z,7.83
2023-03-26T20:19:15.465Z,7.82
2023-03-26T20:21:46.772Z,7.70
2023-03-26T20:24:18.514Z,7.59
2023-03-26T20:26:46.869Z,7.52
2023-03-26T20:29:15.200Z,7.53
2023-03-26T20:31:43.422Z,7.53
2023-03-26T20:34:16.648Z,7.44
2023-03-26T20:36:44.873Z,7.46
2023-03-26T20:39:13.520Z,7.46
2023-03-26T20:41:49.032Z,7.39
2023-03-26T20:44:18.520Z,7.38
2023-03-26T20:46:47.919Z,7.34
2023-03-26T20:49:17.698Z,7.25
2023-03-26T20:51:45.938Z,7.26
2023-03-26T20:54:16.330Z,7.25
2023-03-26T20:56:45.064Z,7.31
2023-03-26T20:59:16.483Z,7.23
2023-03-26T21:01:45.018Z,7.27
2023-03-26T21:04:13.320Z,7.21
2023-03-26T21:06:42.690Z,7.16
2023-03-26T21:09:14.031Z,7.15
2023-03-26T21:11:51.873Z,7.12
2023-03-26T21:14:24.003Z,7.08
2023-03-26T21:16:52.793Z,7.04
2023-03-26T21:19:20.869Z,6.99
2023-03-26T21:22:12.683Z,6.90
2023-03-26T21:24:51.834Z,6.75
2023-03-26T21:27:27.798Z,6.61
2023-03-26T21:29:57.185Z,6.72
2023-03-26T21:32:25.925Z,6.56
2023-03-26T21:34:58.943Z,6.57
2023-03-26T21:37:29.295Z,6.46
2023-03-26T21:39:57.566Z,6.34
2023-03-26T21:42:28.416Z,6.21
2023-03-26T21:44:56.640Z,6.21
2023-03-26T21:47:28.293Z,6.15
2023-03-26T21:49:56.547Z,6.05
2023-03-26T21:52:24.922Z,6.02
2023-03-26T21:54:57.035Z,5.85
2023-03-26T21:57:40.631Z,5.93
2023-03-26T22:00:12.354Z,5.89
2023-03-26T22:02:49.579Z,5.85
2023-03-26T22:05:19.338Z,5.83
2023-03-26T22:07:54.753Z,5.84
2023-03-26T22:10:24.278Z,5.76
2023-03-26T22:12:53.636Z,5.67
2023-03-26T22:15:21.455Z,5.40
2023-03-26T22:17:49.259Z,5.48
2023-03-26T22:20:17.913Z,5.47
2023-03-26T22:22:45.720Z,5.45
2023-03-26T22:25:13.588Z,5.39
2023-03-26T22:27:46.408Z,5.36
2023-03-26T22:30:15.084Z,5.50
2023-03-26T22:32:44.246Z,5.53
2023-03-26T22:35:12.893Z,5.60
2023-03-26T22:37:40.772Z,5.63
2023-03-26T22:40:10.606Z,5.57
2023-03-26T22:42:39.387Z,5.59
2023-03-26T22:45:10.686Z,5.50
2023-03-26T22:47:39.508Z,5.42
2023-03-26T22:50:08.795Z,5.19
2023-03-26T22:52:37.262Z,5.22
2023-03-26T22:55:05.717Z,5.08
2023-03-26T22:57:33.473Z,5.19
2023-03-26T23:00:01.178Z,5.04
2023-03-26T23:02:31.660Z,5.06
2023-03-26T23:04:59.374Z,5.00
2023-03-26T23:07:27.095Z,4.97
2023-03-26T23:09:54.897Z,4.91
2023-03-26T23:12:24.495Z,4.89
2023-03-26T23:14:53.542Z,4.77
2023-03-26T23:17:21.347Z,4.69
2023-03-26T23:19:56.351Z,4.75
2023-03-26T23:22:24.246Z,4.75
2023-03-26T23:24:51.796Z,4.81
2023-03-26T23:27:22.645Z,4.75
2023-03-26T23:29:50.665Z,4.69
2023-03-26T23:32:23.642Z,4.54
2023-03-26T23:34:53.105Z,4.58
2023-03-26T23:37:22.402Z,4.58
2023-03-26T23:39:50.261Z,4.47
2023-03-26T23:42:28.720Z,4.43
2023-03-26T23:44:57.612Z,4.49
2023-03-26T23:47:25.640Z,4.55
2023-03-26T23:49:53.844Z,4.41
2023-03-26T23:52:22.851Z,4.49
2023-03-26T23:54:50.665Z,4.51
2023-03-26T23:57:18.725Z,4.57
2023-03-26T23:59:46.440Z,4.52
